Heather — 9HA2297 — position and weather

sailwx.info

Track history (hours):
 
Tides and Currents Weather Stations Pressure Air Temp Water Temp Dewpoint Dewpoint Depression Visibility Wind Speed Wind Dir Waves Ship Positions

Heather

Last reported at 2018-Jan-11 03:49 UTC. Time now 2018-Jan-20 15:37 UTC.
Position N 34°32' E 026°03'.
Warning: this ship's position is 9 days out of date.

Length 124 m; draft 7.9 m.

Type: Ship. MMSI: 248280000.

Date/timePositionNaut miles runAvg speedWind from/ knotsBaromVisibWave heightAir tempDewpointWater temp
2018-Jan-11 03:49N 34°32' E 026°03'411.6
2018-Jan-11 03:31N 34°32' E 025°59'2612.1
2018-Jan-11 01:24N 34°30' E 025°28'1212.6
2018-Jan-11 00:25N 34°30' E 025°13'1212.6
2018-Jan-10 23:27N 34°29' E 024°58'30411.4
2018-Jan-09 20:49N 35°27' E 018°53'611.7
2018-Jan-09 20:19N 35°28' E 018°46'19610.3
2018-Jan-09 01:19N 36°14' E 014°51'310.4
2018-Jan-09 00:59N 36°15' E 014°47'510.4
2018-Jan-09 00:30N 36°16' E 014°41'510.3
2018-Jan-09 00:00N 36°18' E 014°35'510.5
2018-Jan-08 23:30N 36°19' E 014°29'510.5
2018-Jan-08 23:00N 36°21' E 014°23'510.7
2018-Jan-08 22:30N 36°23' E 014°17'510.8
2018-Jan-08 22:01N 36°25' E 014°10'25510.9
2018-Jan-07 22:34N 37°37' E 009°04'111.7
2018-Jan-07 22:30N 37°38' E 009°03'40211.4
2018-Jan-06 11:12N 37°17' E 000°38'310.9
2018-Jan-06 10:57N 37°16' E 000°35'28912.0
2018-Jan-05 10:56N 36°00' W 005°13'716.7
2018-Jan-05 10:30N 35°59' W 005°22'20211.7
2018-Jan-04 17:19N 36°36' W 009°27'9211.7
2018-Jan-04 09:27N 38°04' W 010°01'1111.8
2018-Jan-04 08:32N 38°15' W 010°03'111.8
2018-Jan-04 08:28N 38°15' W 010°04'612.1
2018-Jan-04 08:00N 38°21' W 010°05'611.7
2018-Jan-04 07:31N 38°26' W 010°07'612.2
2018-Jan-04 07:00N 38°32' W 010°09'612.0
2018-Jan-04 06:30N 38°38' W 010°11'611.5
2018-Jan-04 06:00N 38°44' W 010°12'611.3
2018-Jan-04 05:30N 38°49' W 010°11'611.3
2018-Jan-04 05:00N 38°55' W 010°11'611.7
2018-Jan-04 04:30N 39°01' W 010°12'611.9
2018-Jan-04 04:00N 39°07' W 010°12'611.2
2018-Jan-04 03:30N 39°12' W 010°12'  
Track history (hours):
 
Tides and Currents Weather Stations Pressure Air Temp Water Temp Dewpoint Dewpoint Depression Visibility Wind Speed Wind Dir Waves Ship Positions

Heather

Last reported at 2018-Jan-11 03:49 UTC. Time now 2018-Jan-20 15:37 UTC.
Position N 34°32' E 026°03'.
Warning: this ship's position is 9 days out of date.

Length 124 m; draft 7.9 m.

Type: Ship. MMSI: 248280000.

Date/timePositionNaut miles runAvg speedWind from/ knotsBaromVisibWave heightAir tempDewpointWater temp
2018-Jan-11 03:49N 34°32' E 026°03'411.6
2018-Jan-11 03:31N 34°32' E 025°59'2612.1
2018-Jan-11 01:24N 34°30' E 025°28'1212.6
2018-Jan-11 00:25N 34°30' E 025°13'1212.6
2018-Jan-10 23:27N 34°29' E 024°58'30411.4
2018-Jan-09 20:49N 35°27' E 018°53'611.7
2018-Jan-09 20:19N 35°28' E 018°46'19610.3
2018-Jan-09 01:19N 36°14' E 014°51'310.4
2018-Jan-09 00:59N 36°15' E 014°47'510.4
2018-Jan-09 00:30N 36°16' E 014°41'510.3
2018-Jan-09 00:00N 36°18' E 014°35'510.5
2018-Jan-08 23:30N 36°19' E 014°29'510.5
2018-Jan-08 23:00N 36°21' E 014°23'510.7
2018-Jan-08 22:30N 36°23' E 014°17'510.8
2018-Jan-08 22:01N 36°25' E 014°10'25510.9
2018-Jan-07 22:34N 37°37' E 009°04'111.7
2018-Jan-07 22:30N 37°38' E 009°03'40211.4
2018-Jan-06 11:12N 37°17' E 000°38'310.9
2018-Jan-06 10:57N 37°16' E 000°35'28912.0
2018-Jan-05 10:56N 36°00' W 005°13'716.7
2018-Jan-05 10:30N 35°59' W 005°22'20211.7
2018-Jan-04 17:19N 36°36' W 009°27'9211.7
2018-Jan-04 09:27N 38°04' W 010°01'1111.8
2018-Jan-04 08:32N 38°15' W 010°03'111.8
2018-Jan-04 08:28N 38°15' W 010°04'612.1
2018-Jan-04 08:00N 38°21' W 010°05'611.7
2018-Jan-04 07:31N 38°26' W 010°07'612.2
2018-Jan-04 07:00N 38°32' W 010°09'612.0
2018-Jan-04 06:30N 38°38' W 010°11'611.5
2018-Jan-04 06:00N 38°44' W 010°12'611.3
2018-Jan-04 05:30N 38°49' W 010°11'611.3
2018-Jan-04 05:00N 38°55' W 010°11'611.7
2018-Jan-04 04:30N 39°01' W 010°12'611.9
2018-Jan-04 04:00N 39°07' W 010°12'611.2
2018-Jan-04 03:30N 39°12' W 010°12'  

Dump ship's entire track history